Kaiser — NHJK — position and weather

sailwx.info

Track history (hours):
 
Tides and Currents Weather Stations Pressure Air Temp Water Temp Dewpoint Dewpoint Depression Visibility Wind Speed Wind Dir Waves Ship Positions

Kaiser

Last reported at 2016-Oct-10 22:16 UTC. Time now 2016-Dec-03 23:52 UTC.
Position N 45°34' W 122°44'.
Warning: this ship's position is 54 days out of date.

Length 207 m; draft 8.5 m.

Type: Cargo ship. MMSI: 303849000.

Date/timePositionNaut miles runAvg speedWind from/ knotsBaromVisibWave heightAir tempDewpointWater temp
2016-Oct-10 22:16N 45°34' W 122°44'53 6.8
2016-Oct-10 14:34N 46°16' W 123°29'1312.7
2016-Oct-10 13:34N 46°13' W 123°46'1110.9
2016-Oct-10 12:34N 46°15' W 124°02'3712.4
2016-Oct-10 09:33N 45°48' W 124°38'2412.2
2016-Oct-10 07:33N 45°26' W 124°53'30711.4
2016-Oct-09 04:33N 40°22' W 125°50'1611.6
2016-Oct-09 03:11N 40°06' W 125°50'10911.3
2016-Oct-08 17:33N 38°23' W 125°06'1211.7
2016-Oct-08 16:33N 38°11' W 125°01'1111.5
2016-Oct-08 15:33N 38°01' W 124°57'8911.1
2016-Oct-08 07:33N 36°39' W 124°13'1110.9
2016-Oct-08 06:33N 36°30' W 124°05'6711.2
2016-Oct-08 00:33N 35°34' W 123°20'2311.5
2016-Oct-07 22:33N 35°14' W 123°05'1312.7
2016-Oct-07 21:30N 35°03' W 122°55'6312.7
2016-Oct-07 16:33N 34°10' W 122°14'5012.5
2016-Oct-07 12:33N 33°29' W 121°41'7011.7
2016-Oct-07 06:33N 32°36' W 120°45'3812.7
2016-Oct-07 03:33N 32°36' W 119°60'1212.4
2016-Oct-07 02:33N 32°36' W 119°45'1212.5
2016-Oct-07 01:33N 32°36' W 119°30'2412.2
2016-Oct-06 23:33N 32°36' W 119°02'1312.6
2016-Oct-06 22:33N 32°36' W 118°47'1312.9
2016-Oct-06 21:33N 32°36' W 118°31'1313.4
2016-Oct-06 20:33N 32°36' W 118°15'1413.9
2016-Oct-06 19:33N 32°36' W 117°59'4110.1
2016-Oct-06 15:31N 32°42' W 117°11'0 0.0
2016-Oct-06 14:31N 32°42' W 117°11'  
Track history (hours):
 
Tides and Currents Weather Stations Pressure Air Temp Water Temp Dewpoint Dewpoint Depression Visibility Wind Speed Wind Dir Waves Ship Positions

Kaiser

Last reported at 2016-Oct-10 22:16 UTC. Time now 2016-Dec-03 23:52 UTC.
Position N 45°34' W 122°44'.
Warning: this ship's position is 54 days out of date.

Length 207 m; draft 8.5 m.

Type: Cargo ship. MMSI: 303849000.

Date/timePositionNaut miles runAvg speedWind from/ knotsBaromVisibWave heightAir tempDewpointWater temp
2016-Oct-10 22:16N 45°34' W 122°44'53 6.8
2016-Oct-10 14:34N 46°16' W 123°29'1312.7
2016-Oct-10 13:34N 46°13' W 123°46'1110.9
2016-Oct-10 12:34N 46°15' W 124°02'3712.4
2016-Oct-10 09:33N 45°48' W 124°38'2412.2
2016-Oct-10 07:33N 45°26' W 124°53'30711.4
2016-Oct-09 04:33N 40°22' W 125°50'1611.6
2016-Oct-09 03:11N 40°06' W 125°50'10911.3
2016-Oct-08 17:33N 38°23' W 125°06'1211.7
2016-Oct-08 16:33N 38°11' W 125°01'1111.5
2016-Oct-08 15:33N 38°01' W 124°57'8911.1
2016-Oct-08 07:33N 36°39' W 124°13'1110.9
2016-Oct-08 06:33N 36°30' W 124°05'6711.2
2016-Oct-08 00:33N 35°34' W 123°20'2311.5
2016-Oct-07 22:33N 35°14' W 123°05'1312.7
2016-Oct-07 21:30N 35°03' W 122°55'6312.7
2016-Oct-07 16:33N 34°10' W 122°14'5012.5
2016-Oct-07 12:33N 33°29' W 121°41'7011.7
2016-Oct-07 06:33N 32°36' W 120°45'3812.7
2016-Oct-07 03:33N 32°36' W 119°60'1212.4
2016-Oct-07 02:33N 32°36' W 119°45'1212.5
2016-Oct-07 01:33N 32°36' W 119°30'2412.2
2016-Oct-06 23:33N 32°36' W 119°02'1312.6
2016-Oct-06 22:33N 32°36' W 118°47'1312.9
2016-Oct-06 21:33N 32°36' W 118°31'1313.4
2016-Oct-06 20:33N 32°36' W 118°15'1413.9
2016-Oct-06 19:33N 32°36' W 117°59'4110.1
2016-Oct-06 15:31N 32°42' W 117°11'0 0.0
2016-Oct-06 14:31N 32°42' W 117°11'  

Dump ship's entire track history